Time;durP1;ratioP1;P1;durP2;ratioP2;P2;SDS_P1;SDS_P2;PMS_P1;PMS_P2;Temp;Humidity;BMP_temperature;BMP_pressure;BME280_temperature;BME280_humidity;BME280_pressure;Samples;Min_cycle;Max_cycle;Signal;HPM_P1;HPM_P2
2022/06/04 00:01:31;;;;;;;73.13;46.72;;;27.50;99.90;;;;;;5093255;28;20069;-64
2022/06/04 00:03:57;;;;;;;90.05;55.63;;;27.60;99.90;;;;;;5091827;28;20024;-64
2022/06/04 00:06:24;;;;;;;89.57;56.75;;;27.60;99.90;;;;;;5093255;28;20020;-64
2022/06/04 00:08:51;;;;;;;86.28;51.22;;;27.60;99.90;;;;;;5091848;28;20389;-63
2022/06/04 00:16:47;;;;;;;72.45;44.42;;;27.70;99.90;;;;;;5092061;28;20111;-64
2022/06/04 00:19:13;;;;;;;68.60;42.13;;;27.70;99.90;;;;;;5092586;28;20027;-64
2022/06/04 00:21:40;;;;;;;71.25;44.03;;;27.80;99.90;;;;;;5083732;28;20032;-65
2022/06/04 00:24:07;;;;;;;70.93;42.10;;;27.90;99.90;;;;;;5081197;28;20043;-64
2022/06/04 00:26:34;;;;;;;85.60;46.25;;;27.90;99.90;;;;;;5077122;28;20035;-63
2022/06/04 00:29:01;;;;;;;80.78;46.67;;;27.90;99.90;;;;;;5076188;28;20450;-64
2022/06/04 00:31:27;;;;;;;62.00;42.17;;;27.90;99.90;;;;;;5090724;28;20056;-62
2022/06/04 00:33:54;;;;;;;64.20;40.72;;;28.00;99.90;;;;;;5095637;28;20389;-64
2022/06/04 00:36:21;;;;;;;49.25;35.65;;;28.00;99.90;;;;;;5096069;28;20538;-64
2022/06/04 00:38:48;;;;;;;65.32;42.35;;;28.10;99.90;;;;;;5096280;28;20358;-64
2022/06/04 00:41:35;;;;;;;61.30;39.97;;;28.10;99.90;;;;;;5095398;28;20393;-64
2022/06/04 00:44:13;;;;;;;63.78;40.63;;;28.10;99.90;;;;;;5095538;28;20492;-64
2022/06/04 00:46:42;;;;;;;55.13;37.92;;;28.20;99.90;;;;;;5095285;28;20040;-64
2022/06/04 00:49:15;;;;;;;49.20;32.20;;;28.20;99.90;;;;;;5096254;28;20024;-64
2022/06/04 00:51:44;;;;;;;49.40;31.30;;;28.30;99.90;;;;;;5095215;28;20036;-62
2022/06/04 00:54:11;;;;;;;61.70;40.78;;;28.20;99.90;;;;;;5094687;28;20103;-64
2022/06/04 00:56:50;;;;;;;65.07;41.88;;;28.30;99.90;;;;;;5095651;28;20020;-64
2022/06/04 00:59:35;;;;;;;63.67;42.47;;;28.30;99.90;;;;;;5096004;28;20027;-64
2022/06/04 01:02:20;;;;;;;40.25;26.92;;;28.30;99.90;;;;;;5091296;28;20027;-64
2022/06/04 01:04:59;;;;;;;44.22;26.15;;;28.30;99.90;;;;;;5084595;28;20020;-65
2022/06/04 01:07:43;;;;;;;45.95;26.05;;;28.30;99.90;;;;;;5085418;28;20023;-64
2022/06/04 01:10:29;;;;;;;42.22;28.67;;;28.40;99.90;;;;;;5090170;28;20047;-65
2022/06/04 01:13:07;;;;;;;39.75;23.88;;;28.40;99.90;;;;;;5091312;28;20361;-65
2022/06/04 01:15:39;;;;;;;36.03;24.88;;;28.50;99.90;;;;;;5085615;28;20098;-65
2022/06/04 01:18:31;;;;;;;35.00;24.55;;;28.60;99.90;;;;;;5086327;28;20031;-65
2022/06/04 01:21:19;;;;;;;36.40;23.98;;;28.60;99.90;;;;;;5090758;28;20035;-64
2022/06/04 01:24:18;;;;;;;38.50;24.25;;;28.70;99.90;;;;;;5086137;28;20039;-66
2022/06/04 01:27:08;;;;;;;40.47;24.90;;;28.70;99.90;;;;;;5087053;28;20111;-65
2022/06/04 01:30:11;;;;;;;37.92;23.23;;;28.80;99.90;;;;;;5073296;28;20460;-65
2022/06/04 01:33:06;;;;;;;45.30;21.45;;;28.90;99.90;;;;;;5054652;28;20033;-64
2022/06/04 01:35:51;;;;;;;33.60;21.40;;;29.00;99.90;;;;;;5088297;28;20065;-66
2022/06/04 01:38:42;;;;;;;34.00;21.80;;;29.00;99.90;;;;;;5093751;28;20051;-66
2022/06/04 01:41:17;;;;;;;42.72;28.55;;;29.00;99.90;;;;;;5082284;28;20028;-64
2022/06/04 01:43:55;;;;;;;42.30;26.70;;;29.00;99.90;;;;;;5083679;28;20032;-64
2022/06/04 01:46:31;;;;;;;36.17;23.67;;;29.00;99.90;;;;;;5083707;28;20021;-65
2022/06/04 01:49:03;;;;;;;34.90;23.48;;;29.10;99.90;;;;;;5083760;28;20085;-63
2022/06/04 01:51:33;;;;;;;40.45;25.02;;;29.10;99.90;;;;;;5085021;28;20465;-61
2022/06/04 01:54:06;;;;;;;39.45;27.13;;;29.20;99.90;;;;;;5084373;28;20031;-62
2022/06/04 01:56:39;;;;;;;41.90;29.00;;;29.20;99.90;;;;;;5084669;28;20035;-62
2022/06/04 01:59:27;;;;;;;50.80;33.00;;;29.20;99.90;;;;;;5084187;28;20021;-62
2022/06/04 02:01:59;;;;;;;44.15;28.52;;;29.20;99.90;;;;;;5084839;28;20020;-63
2022/06/04 02:04:31;;;;;;;41.25;27.67;;;29.30;99.90;;;;;;5085409;28;20024;-61
2022/06/04 02:10:02;;;;;;;40.35;26.13;;;29.30;99.90;;;;;;5088058;28;20038;-62
2022/06/04 02:12:33;;;;;;;34.30;26.17;;;29.30;99.90;;;;;;5088083;28;20109;-60
2022/06/04 02:15:05;;;;;;;37.85;26.25;;;29.40;99.90;;;;;;5081612;28;20067;-62
2022/06/04 02:17:32;;;;;;;39.58;27.52;;;29.40;99.90;;;;;;5087247;28;20059;-62
2022/06/04 02:19:59;;;;;;;35.67;25.02;;;29.40;99.90;;;;;;5084538;28;20096;-62
2022/06/04 02:22:26;;;;;;;41.97;26.73;;;29.40;99.90;;;;;;5084929;28;20074;-61
2022/06/04 02:24:53;;;;;;;41.97;27.75;;;29.50;99.90;;;;;;5084822;28;20020;-64
2022/06/04 02:27:19;;;;;;;42.42;26.88;;;29.50;99.90;;;;;;5085774;28;20024;-64
2022/06/04 02:29:46;;;;;;;44.13;26.98;;;29.50;99.90;;;;;;5090330;28;20103;-62
2022/06/04 02:32:50;;;;;;;42.97;26.52;;;29.60;99.90;;;;;;5094342;28;20090;-62
2022/06/04 02:35:30;;;;;;;44.25;28.33;;;29.60;99.90;;;;;;5094019;28;20588;-60
2022/06/04 02:38:04;;;;;;;38.97;28.02;;;29.70;99.90;;;;;;5092036;28;20031;-61
2022/06/04 02:40:56;;;;;;;38.85;25.13;;;29.90;99.90;;;;;;5092970;28;20028;-62
2022/06/04 02:43:42;;;;;;;;;;;30.00;99.90;;;;;;5093467;28;20043;-61
2022/06/04 02:46:22;;;;;;;55.65;24.70;;;30.00;99.90;;;;;;5082136;28;20470;-62
2022/06/04 02:49:09;;;;;;;37.33;21.60;;;30.10;99.90;;;;;;5086344;28;20052;-61
2022/06/04 02:51:50;;;;;;;32.65;21.27;;;30.20;99.90;;;;;;5091013;28;20028;-62
2022/06/04 02:54:44;;;;;;;28.88;21.38;;;30.30;99.90;;;;;;5081519;28;20469;-62
2022/06/04 02:57:14;;;;;;;32.97;20.48;;;30.40;99.90;;;;;;5083778;28;20049;-62
2022/06/04 02:59:43;;;;;;;39.97;23.95;;;30.40;99.90;;;;;;5077169;28;20020;-62
2022/06/04 03:02:13;;;;;;;33.60;21.48;;;30.50;99.90;;;;;;5085050;28;20026;-62
2022/06/04 03:04:49;;;;;;;37.50;22.00;;;30.50;99.90;;;;;;5087038;28;20027;-60
2022/06/04 03:07:18;;;;;;;30.33;19.52;;;30.70;99.90;;;;;;5086808;28;20040;-61
2022/06/04 03:09:46;;;;;;;34.97;21.10;;;30.70;99.90;;;;;;5084788;28;20035;-61
2022/06/04 03:12:13;;;;;;;33.83;22.15;;;30.60;99.90;;;;;;5079947;28;20111;-61
2022/06/04 03:14:41;;;;;;;41.33;20.90;;;30.50;99.90;;;;;;5086013;28;20107;-61
2022/06/04 03:17:10;;;;;;;31.85;21.30;;;30.50;99.90;;;;;;5082820;28;20028;-61
2022/06/04 03:19:37;;;;;;;38.28;22.13;;;30.50;99.90;;;;;;5085829;28;20505;-61
2022/06/04 03:22:05;;;;;;;39.25;25.17;;;30.40;99.90;;;;;;5089109;28;20052;-62
2022/06/04 03:24:32;;;;;;;36.10;23.40;;;30.40;99.90;;;;;;5083309;28;20105;-62
2022/06/04 03:26:59;;;;;;;33.95;19.27;;;30.50;99.90;;;;;;5086547;28;20084;-62
2022/06/04 03:29:25;;;;;;;33.70;20.70;;;30.60;99.90;;;;;;5090705;28;20419;-61
2022/06/04 03:31:52;;;;;;;35.33;21.50;;;30.60;99.90;;;;;;5083555;28;20078;-63
2022/06/04 03:34:19;;;;;;;27.60;19.60;;;30.70;99.90;;;;;;5081902;28;20115;-63
2022/06/04 03:36:45;;;;;;;40.83;21.33;;;30.80;99.90;;;;;;5083094;28;20024;-61
2022/06/04 03:39:12;;;;;;;36.72;24.30;;;30.70;99.90;;;;;;5079882;28;20445;-61
2022/06/04 03:41:39;;;;;;;36.88;25.58;;;30.80;99.90;;;;;;5083393;28;20066;-61
2022/06/04 03:44:06;;;;;;;40.15;27.45;;;30.90;99.90;;;;;;5083429;28;20043;-61
2022/06/04 03:46:33;;;;;;;30.60;22.30;;;31.00;99.90;;;;;;5085645;28;20032;-61
2022/06/04 03:48:59;;;;;;;28.83;17.80;;;31.00;99.90;;;;;;5084229;28;20024;-60
2022/06/04 03:51:28;;;;;;;30.05;18.65;;;31.00;99.90;;;;;;5084746;28;20028;-61
2022/06/04 03:53:55;;;;;;;23.25;16.48;;;31.00;99.90;;;;;;5085619;28;20380;-61
2022/06/04 03:56:22;;;;;;;22.00;16.08;;;31.00;99.90;;;;;;5085104;28;20062;-61
2022/06/04 03:58:50;;;;;;;31.05;18.55;;;31.00;99.90;;;;;;5090432;28;20062;-60
2022/06/04 04:01:20;;;;;;;26.98;18.05;;;31.10;99.90;;;;;;5093506;28;20050;-63
2022/06/04 04:03:48;;;;;;;31.38;17.67;;;31.20;99.90;;;;;;5094458;28;20099;-63
2022/06/04 04:06:19;;;;;;;25.60;17.63;;;31.30;99.90;;;;;;5093987;28;20024;-63
2022/06/04 04:08:45;;;;;;;31.27;17.70;;;31.30;99.90;;;;;;5092039;28;20026;-67
2022/06/04 04:11:17;;;;;;;23.30;15.02;;;31.50;99.90;;;;;;5087717;28;20028;-63
2022/06/04 04:13:44;;;;;;;;;;;31.60;99.90;;;;;;5085747;28;20024;-61
2022/06/04 04:16:13;;;;;;;23.15;13.38;;;31.70;99.90;;;;;;5088970;28;19918;-61
2022/06/04 04:18:39;;;;;;;16.83;11.90;;;31.80;99.90;;;;;;5091255;28;20316;-61
2022/06/04 04:21:13;;;;;;;20.70;12.38;;;31.90;99.90;;;;;;5091350;28;20524;-61
2022/06/04 04:23:40;;;;;;;19.40;12.63;;;31.90;99.90;;;;;;5089754;28;20031;-64
2022/06/04 04:26:09;;;;;;;16.90;12.23;;;32.00;99.90;;;;;;5087809;28;20020;-62
2022/06/04 04:28:37;;;;;;;24.05;13.82;;;32.10;99.90;;;;;;5088221;28;20373;-61
2022/06/04 04:31:11;;;;;;;24.05;14.52;;;32.00;99.90;;;;;;5086331;28;20032;-61
2022/06/04 04:33:39;;;;;;;15.20;11.15;;;32.10;99.90;;;;;;5085031;28;20032;-62
2022/06/04 04:36:07;;;;;;;11.68;9.13;;;32.00;99.90;;;;;;5083961;28;20038;-61
2022/06/04 04:38:33;;;;;;;21.40;10.27;;;31.90;97.40;;;;;;5087203;28;20031;-61
2022/06/04 04:41:00;;;;;;;18.42;10.20;;;31.90;96.00;;;;;;5085888;28;21506;-61
2022/06/04 04:43:27;;;;;;;15.43;9.75;;;32.00;96.60;;;;;;5085622;28;20031;-61
2022/06/04 04:46:05;;;;;;;13.25;9.38;;;32.00;95.70;;;;;;5085078;28;20042;-61
2022/06/04 04:48:32;;;;;;;13.52;8.82;;;32.10;95.00;;;;;;5087614;28;20381;-61
2022/06/04 04:50:58;;;;;;;10.27;7.90;;;32.00;95.60;;;;;;5090018;28;20024;-60
2022/06/04 04:53:25;;;;;;;15.02;8.27;;;32.00;95.60;;;;;;5088091;28;20421;-62
2022/06/04 04:55:52;;;;;;;13.25;8.68;;;32.20;93.90;;;;;;5087306;28;20043;-62
2022/06/04 04:58:18;;;;;;;10.95;7.65;;;32.20;93.30;;;;;;5086850;28;20059;-60
2022/06/04 05:00:46;;;;;;;11.00;7.47;;;32.20;93.70;;;;;;5089585;28;20092;-61
2022/06/04 05:03:13;;;;;;;8.95;7.18;;;32.20;93.20;;;;;;5088615;28;20083;-62
2022/06/04 05:05:39;;;;;;;13.75;8.38;;;32.20;92.40;;;;;;5088512;28;20040;-62
2022/06/04 05:08:06;;;;;;;12.88;8.27;;;32.20;93.50;;;;;;5088242;28;20523;-60
2022/06/04 05:10:33;;;;;;;12.55;8.88;;;32.40;93.50;;;;;;5084403;28;20036;-61
2022/06/04 05:13:00;;;;;;;15.07;10.77;;;32.50;93.00;;;;;;5089706;28;20047;-62
2022/06/04 05:15:27;;;;;;;15.95;10.25;;;32.50;93.10;;;;;;5086768;28;20385;-60
2022/06/04 05:17:53;;;;;;;12.77;9.80;;;32.70;93.30;;;;;;5086104;28;20059;-62
2022/06/04 05:20:21;;;;;;;17.02;10.27;;;32.70;93.40;;;;;;5087163;28;20016;-65
2022/06/04 05:22:47;;;;;;;14.40;10.55;;;32.70;94.40;;;;;;5085660;28;20139;-60
2022/06/04 05:25:14;;;;;;;17.33;10.55;;;32.60;94.50;;;;;;5095552;28;20027;-61
2022/06/04 05:27:41;;;;;;;22.08;10.18;;;32.60;94.30;;;;;;5088857;28;20393;-62
2022/06/04 05:30:08;;;;;;;16.73;9.93;;;32.60;94.10;;;;;;5085229;28;20033;-62
2022/06/04 05:32:35;;;;;;;18.10;9.77;;;32.60;94.60;;;;;;5082767;28;20123;-61
2022/06/04 05:35:02;;;;;;;14.77;9.95;;;32.60;94.30;;;;;;5080180;28;20021;-62
2022/06/04 05:37:28;;;;;;;18.17;11.13;;;32.60;94.20;;;;;;5086037;28;20024;-62
2022/06/04 05:39:55;;;;;;;15.55;9.32;;;32.60;94.40;;;;;;5085705;28;20027;-63
2022/06/04 05:42:22;;;;;;;15.25;8.75;;;32.50;93.80;;;;;;5086508;28;20028;-62
2022/06/04 05:44:48;;;;;;;14.30;9.25;;;32.60;93.70;;;;;;5085832;28;20020;-63
2022/06/04 05:47:15;;;;;;;13.15;9.27;;;32.60;94.40;;;;;;5078485;28;20127;-62
2022/06/04 05:49:42;;;;;;;14.32;9.45;;;32.70;94.40;;;;;;5084413;28;20024;-62
2022/06/04 05:52:08;;;;;;;18.38;9.68;;;32.70;94.10;;;;;;5092093;28;20040;-59
2022/06/04 05:54:35;;;;;;;14.55;8.13;;;32.80;93.30;;;;;;5083146;28;20066;-60
2022/06/04 05:57:03;;;;;;;12.45;7.88;;;32.80;91.80;;;;;;5085242;28;20028;-61
2022/06/04 05:59:30;;;;;;;12.13;8.93;;;32.80;92.50;;;;;;5092349;28;20078;-61
2022/06/04 06:01:56;;;;;;;14.35;9.02;;;32.80;92.30;;;;;;5081649;28;20052;-60
2022/06/04 06:04:26;;;;;;;12.25;8.70;;;32.90;92.80;;;;;;5074605;28;20127;-61
2022/06/04 06:06:53;;;;;;;13.48;8.30;;;32.90;92.50;;;;;;5074499;28;20036;-61
2022/06/04 06:09:22;;;;;;;17.40;8.95;;;32.90;92.80;;;;;;5090141;28;20027;-61
2022/06/04 06:11:49;;;;;;;11.23;8.27;;;32.90;92.60;;;;;;5088902;28;20024;-60
2022/06/04 06:14:17;;;;;;;13.60;8.40;;;32.90;90.80;;;;;;5093995;28;20035;-61
2022/06/04 06:16:46;;;;;;;12.77;8.70;;;32.90;91.80;;;;;;5090862;28;20512;-61
2022/06/04 06:19:15;;;;;;;12.23;8.93;;;32.90;91.50;;;;;;5074039;28;20031;-57
2022/06/04 06:21:42;;;;;;;12.48;8.65;;;33.00;90.60;;;;;;5081747;28;20377;-60
2022/06/04 06:24:10;;;;;;;12.00;8.40;;;32.90;89.30;;;;;;5078143;28;20069;-61
2022/06/04 06:26:52;;;;;;;20.77;10.05;;;32.90;90.50;;;;;;5082279;28;20024;-62
2022/06/04 06:29:20;;;;;;;14.75;8.60;;;33.00;90.10;;;;;;5092620;28;20493;-62
2022/06/04 06:31:47;;;;;;;12.73;8.20;;;33.10;90.00;;;;;;5093675;28;20162;-61
2022/06/04 06:34:14;;;;;;;13.48;7.53;;;33.10;90.80;;;;;;5093732;28;20024;-62
2022/06/04 06:36:40;;;;;;;14.80;8.70;;;33.20;89.80;;;;;;5092279;28;20035;-63
2022/06/04 06:39:08;;;;;;;13.65;8.25;;;33.30;87.10;;;;;;5093247;28;20020;-60
2022/06/04 06:41:35;;;;;;;11.38;7.32;;;33.40;86.00;;;;;;5093523;28;20040;-63
2022/06/04 06:44:02;;;;;;;13.15;7.85;;;33.30;85.50;;;;;;5093767;28;20053;-62
2022/06/04 06:46:35;;;;;;;9.88;7.55;;;33.30;86.50;;;;;;5091789;28;20039;-62
2022/06/04 06:49:04;;;;;;;8.25;7.35;;;33.30;85.70;;;;;;5080688;28;20032;-64
2022/06/04 06:51:34;;;;;;;18.83;8.82;;;33.10;84.70;;;;;;5093620;28;20089;-64
2022/06/04 06:54:01;;;;;;;14.88;7.50;;;33.20;85.10;;;;;;5092614;28;20116;-63
2022/06/04 06:56:32;;;;;;;12.13;7.57;;;33.30;84.90;;;;;;5090514;28;20032;-64
2022/06/04 06:59:01;;;;;;;11.68;7.45;;;33.30;83.10;;;;;;5083833;28;20070;-61
2022/06/04 07:01:28;;;;;;;9.68;7.07;;;33.30;82.00;;;;;;5086636;28;20028;-64
2022/06/04 07:03:57;;;;;;;13.95;7.72;;;33.20;82.40;;;;;;5091280;28;20467;-61
2022/06/04 07:06:33;;;;;;;9.80;6.57;;;33.00;83.00;;;;;;5091493;28;20028;-63
2022/06/04 07:09:02;;;;;;;11.38;6.88;;;33.00;84.50;;;;;;5091432;28;20044;-63
2022/06/04 07:11:29;;;;;;;11.90;8.15;;;33.00;85.70;;;;;;5091329;28;20469;-62
2022/06/04 07:13:55;;;;;;;13.07;10.07;;;33.00;86.00;;;;;;5091068;28;20035;-62
2022/06/04 07:16:23;;;;;;;16.85;10.45;;;33.10;85.00;;;;;;5091248;28;20032;-63
2022/06/04 07:18:50;;;;;;;12.10;7.85;;;33.10;85.10;;;;;;5091477;28;20026;-63
2022/06/04 07:21:18;;;;;;;10.63;7.90;;;33.20;84.50;;;;;;5093129;28;20070;-63
2022/06/04 07:23:44;;;;;;;13.23;8.10;;;33.10;85.10;;;;;;5093550;28;20423;-62
2022/06/04 07:26:12;;;;;;;15.35;10.45;;;33.10;85.20;;;;;;5093246;28;20031;-63
2022/06/04 07:28:40;;;;;;;18.15;10.93;;;33.00;85.00;;;;;;5092914;28;20020;-63
2022/06/04 07:31:09;;;;;;;13.48;9.80;;;33.00;85.80;;;;;;5093189;28;20016;-63
2022/06/04 07:33:36;;;;;;;13.43;8.63;;;32.90;86.20;;;;;;5093330;28;20029;-63
2022/06/04 07:36:03;;;;;;;15.15;8.57;;;32.90;87.10;;;;;;5096036;28;20059;-62
2022/06/04 07:38:30;;;;;;;18.95;13.23;;;32.90;86.70;;;;;;5097222;28;20036;-62
2022/06/04 07:40:56;;;;;;;29.45;15.05;;;32.90;85.90;;;;;;5097128;28;20048;-62
2022/06/04 07:43:24;;;;;;;19.92;11.90;;;33.00;86.50;;;;;;5096923;28;20081;-62
2022/06/04 07:45:51;;;;;;;24.23;13.63;;;33.00;85.80;;;;;;5097156;28;20020;-62
2022/06/04 07:48:18;;;;;;;24.20;10.55;;;33.00;86.50;;;;;;5096852;28;20048;-63
2022/06/04 07:50:44;;;;;;;27.58;17.75;;;32.90;87.10;;;;;;5096800;28;20032;-63
2022/06/04 07:53:11;;;;;;;49.60;30.15;;;32.90;87.50;;;;;;5097082;28;20031;-62
2022/06/04 07:55:42;;;;;;;36.92;24.08;;;33.00;87.80;;;;;;5096922;28;20031;-63
2022/06/04 07:58:09;;;;;;;31.17;17.77;;;33.00;88.80;;;;;;5096615;28;20028;-63
2022/06/04 08:00:38;;;;;;;15.60;9.82;;;33.00;89.20;;;;;;5078582;28;20384;-63
2022/06/04 08:03:07;;;;;;;19.55;10.45;;;32.90;90.40;;;;;;5096777;28;20389;-62
2022/06/04 08:05:34;;;;;;;20.85;10.25;;;32.80;89.20;;;;;;5096516;28;20496;-62
2022/06/04 08:08:01;;;;;;;13.85;10.15;;;32.80;88.70;;;;;;5095907;28;20039;-62
2022/06/04 08:10:27;;;;;;;16.35;12.95;;;32.70;88.60;;;;;;5086577;28;20020;-63
2022/06/04 08:12:57;;;;;;;23.77;15.23;;;32.60;89.10;;;;;;5085507;28;20548;-63
2022/06/04 08:15:24;;;;;;;28.80;12.18;;;32.60;89.50;;;;;;5085081;28;20116;-63
2022/06/04 08:17:51;;;;;;;23.60;11.07;;;32.60;87.90;;;;;;5085879;28;20024;-63
2022/06/04 08:20:18;;;;;;;25.65;15.68;;;32.70;89.20;;;;;;5086704;28;20021;-63
2022/06/04 08:22:45;;;;;;;20.98;14.48;;;32.80;89.30;;;;;;5084610;28;20028;-64
2022/06/04 08:25:13;;;;;;;21.58;13.98;;;32.90;89.60;;;;;;5085395;28;20464;-63
2022/06/04 08:27:40;;;;;;;28.98;17.92;;;32.90;87.70;;;;;;5087130;28;20035;-63
2022/06/04 08:30:08;;;;;;;23.10;15.65;;;32.80;87.70;;;;;;5085155;28;20464;-64
2022/06/04 08:32:34;;;;;;;14.50;9.23;;;32.80;87.60;;;;;;5083808;28;20040;-64
2022/06/04 08:35:01;;;;;;;14.32;8.82;;;32.70;87.70;;;;;;5085125;28;20032;-61
2022/06/04 08:37:28;;;;;;;18.65;8.27;;;32.70;87.20;;;;;;5087351;28;20027;-62
2022/06/04 08:39:54;;;;;;;19.08;12.75;;;32.70;85.80;;;;;;5084952;28;20027;-63
2022/06/04 08:42:42;;;;;;;28.50;19.77;;;32.60;85.50;;;;;;5085983;28;20013;-62
2022/06/04 08:45:11;;;;;;;26.48;17.88;;;32.60;85.90;;;;;;5088177;28;20020;-61
2022/06/04 08:47:44;;;;;;;27.92;18.98;;;32.60;86.70;;;;;;5087455;28;20389;-62
2022/06/04 08:50:14;;;;;;;20.08;16.33;;;32.60;86.80;;;;;;5087041;28;20047;-62
2022/06/04 08:52:49;;;;;;;39.83;27.55;;;32.60;87.00;;;;;;5085179;28;20385;-61
2022/06/04 08:58:48;;;;;;;19.98;11.10;;;32.50;88.00;;;;;;5085788;28;20039;-63
2022/06/04 09:01:26;;;;;;;33.88;19.85;;;32.50;89.50;;;;;;5083447;28;20069;-63
2022/06/04 09:03:58;;;;;;;23.63;10.48;;;32.40;90.70;;;;;;5085354;28;20013;-61
2022/06/04 09:06:36;;;;;;;19.33;11.60;;;32.40;90.70;;;;;;5083799;28;20052;-62
2022/06/04 09:09:06;;;;;;;21.15;12.40;;;32.30;90.60;;;;;;5086099;28;20028;-63
2022/06/04 09:11:39;;;;;;;23.95;14.05;;;32.20;90.90;;;;;;5085297;28;20044;-63
2022/06/04 09:14:15;;;;;;;29.42;16.48;;;32.20;90.80;;;;;;5083845;28;20012;-63
2022/06/04 09:16:50;;;;;;;29.38;14.07;;;32.20;90.80;;;;;;5083856;28;20065;-63
2022/06/04 09:19:25;;;;;;;38.42;18.25;;;32.20;89.10;;;;;;5085392;28;20059;-62
2022/06/04 09:21:53;;;;;;;43.63;26.10;;;32.20;89.60;;;;;;5094734;28;20051;-62
2022/06/04 09:24:20;;;;;;;37.33;23.77;;;32.20;90.30;;;;;;5095088;28;20020;-62
2022/06/04 09:26:56;;;;;;;43.22;26.80;;;32.20;90.40;;;;;;5094878;28;20451;-63
2022/06/04 09:29:31;;;;;;;40.35;22.95;;;32.30;90.00;;;;;;5095141;28;20380;-62
2022/06/04 09:32:01;;;;;;;29.33;18.05;;;32.30;90.00;;;;;;5095072;28;20035;-63
2022/06/04 09:34:37;;;;;;;43.60;24.40;;;32.20;89.50;;;;;;5095049;28;20024;-62
2022/06/04 09:37:10;;;;;;;59.35;31.67;;;32.20;89.90;;;;;;5095098;28;20032;-62
2022/06/04 09:39:40;;;;;;;36.50;21.45;;;32.20;90.00;;;;;;5095055;28;20016;-63
2022/06/04 09:42:24;;;;;;;35.40;21.45;;;32.20;90.10;;;;;;5095000;28;20426;-63
2022/06/04 09:44:52;;;;;;;47.65;26.42;;;32.10;90.10;;;;;;5095154;28;20020;-63
2022/06/04 09:47:22;;;;;;;44.35;25.10;;;32.10;90.10;;;;;;5094698;28;20094;-63
2022/06/04 09:49:57;;;;;;;43.97;24.20;;;32.10;90.10;;;;;;5094570;28;20024;-63
2022/06/04 09:52:38;;;;;;;62.13;42.10;;;32.00;89.50;;;;;;5087021;28;20466;-62
2022/06/04 09:55:18;;;;;;;125.03;75.50;;;32.00;89.60;;;;;;5084436;28;20511;-61
2022/06/04 09:58:07;;;;;;;123.35;76.57;;;32.00;90.10;;;;;;5083814;28;20035;-62
2022/06/04 10:00:40;;;;;;;129.20;69.45;;;32.00;89.40;;;;;;5085520;28;20016;-62
2022/06/04 10:03:19;;;;;;;108.53;59.83;;;31.90;89.80;;;;;;5084866;28;20013;-62
2022/06/04 10:06:00;;;;;;;89.75;49.95;;;31.90;89.10;;;;;;5084671;28;20092;-62
2022/06/04 10:08:29;;;;;;;106.10;56.42;;;31.90;88.80;;;;;;5084739;28;20512;-62
2022/06/04 10:11:05;;;;;;;100.90;46.95;;;31.90;86.50;;;;;;5082855;28;20448;-61
2022/06/04 10:13:43;;;;;;;127.47;61.17;;;31.90;85.80;;;;;;5083733;28;20542;-63
2022/06/04 10:16:26;;;;;;;108.13;57.00;;;31.80;85.90;;;;;;5079674;28;20038;-64
2022/06/04 10:18:53;;;;;;;81.93;46.83;;;31.80;86.10;;;;;;5073811;28;20020;-62
2022/06/04 10:21:26;;;;;;;99.10;58.10;;;31.80;87.20;;;;;;5085920;28;20538;-63
2022/06/04 10:23:57;;;;;;;83.10;46.13;;;31.80;87.50;;;;;;5088617;28;20028;-62
2022/06/04 10:26:41;;;;;;;70.55;42.85;;;31.80;88.10;;;;;;5082396;28;20024;-63
2022/06/04 10:29:20;;;;;;;60.05;36.53;;;31.70;88.50;;;;;;5083433;28;20031;-62
2022/06/04 10:32:24;;;;;;;43.08;24.52;;;31.70;88.50;;;;;;5080515;28;20103;-62
2022/06/04 10:35:21;;;;;;;44.60;23.70;;;31.80;89.70;;;;;;5079519;28;20449;-61
2022/06/04 10:38:26;;;;;;;48.33;29.38;;;31.70;89.90;;;;;;5083360;28;20028;-61
2022/06/04 10:41:14;;;;;;;51.95;31.05;;;31.70;89.00;;;;;;5079874;28;20040;-62
2022/06/04 10:44:18;;;;;;;45.70;25.77;;;31.60;89.10;;;;;;5082803;28;20555;-62
2022/06/04 10:46:59;;;;;;;43.38;23.73;;;31.60;89.50;;;;;;5080297;28;20048;-60
2022/06/04 10:49:32;;;;;;;40.13;21.92;;;31.50;89.70;;;;;;5082395;28;20020;-63
2022/06/04 10:51:58;;;;;;;54.08;38.10;;;31.60;90.50;;;;;;5080035;28;20024;-62
2022/06/04 10:54:43;;;;;;;40.42;24.73;;;31.60;91.30;;;;;;5084615;28;20081;-62
2022/06/04 10:58:06;;;;;;;43.88;25.02;;;31.60;91.20;;;;;;5082370;28;20028;-63
2022/06/04 11:00:48;;;;;;;47.67;26.15;;;31.60;91.50;;;;;;5025489;28;20044;-62
2022/06/04 11:03:35;;;;;;;41.42;24.75;;;31.60;92.10;;;;;;5086663;28;20285;-61
2022/06/04 11:06:11;;;;;;;42.47;25.58;;;31.50;91.70;;;;;;5084525;28;20138;-61
2022/06/04 11:09:01;;;;;;;34.50;21.17;;;31.40;92.30;;;;;;5080710;28;20012;-62
2022/06/04 11:11:38;;;;;;;40.30;22.50;;;31.40;92.30;;;;;;5081746;28;20046;-61
2022/06/04 11:14:15;;;;;;;41.97;25.25;;;31.30;93.10;;;;;;5083907;28;20024;-62
2022/06/04 11:16:51;;;;;;;39.13;25.02;;;31.30;93.20;;;;;;5084510;28;20139;-62
2022/06/04 11:19:27;;;;;;;26.80;19.38;;;31.20;93.60;;;;;;5082491;28;20104;-62
2022/06/04 11:21:59;;;;;;;31.48;21.98;;;31.20;93.80;;;;;;5079943;28;20032;-62
2022/06/04 11:25:08;;;;;;;31.92;18.15;;;31.20;94.10;;;;;;5081112;28;20024;-62
2022/06/04 11:27:43;;;;;;;30.20;18.23;;;31.10;93.70;;;;;;5068865;28;20512;-62
2022/06/04 11:30:28;;;;;;;33.90;19.50;;;31.10;93.40;;;;;;5082213;28;20070;-62
2022/06/04 11:33:08;;;;;;;34.22;20.45;;;31.00;93.10;;;;;;5086256;28;20031;-62
2022/06/04 11:35:45;;;;;;;32.75;19.75;;;31.10;94.00;;;;;;5087689;28;20082;-61
2022/06/04 11:38:43;;;;;;;33.92;21.00;;;31.00;93.40;;;;;;5074468;28;20021;-61
2022/06/04 11:41:34;;;;;;;34.13;21.42;;;30.90;93.40;;;;;;5079251;28;20100;-62
2022/06/04 11:44:33;;;;;;;32.70;21.30;;;30.90;93.60;;;;;;5088765;28;20473;-63
2022/06/04 11:47:18;;;;;;;39.78;23.05;;;30.90;93.60;;;;;;5069641;28;20045;-63
2022/06/04 11:50:06;;;;;;;34.92;22.20;;;30.90;94.40;;;;;;5083408;28;20024;-62
2022/06/04 11:52:44;;;;;;;34.20;20.40;;;30.80;93.50;;;;;;5084850;28;20055;-62
2022/06/04 11:55:23;;;;;;;32.17;21.35;;;30.80;93.70;;;;;;5084170;28;20080;-63
2022/06/04 11:58:19;;;;;;;32.47;20.45;;;30.80;93.90;;;;;;5084380;28;20020;-62
2022/06/04 12:00:48;;;;;;;29.77;21.40;;;30.70;93.90;;;;;;5082638;28;20381;-63
2022/06/04 12:03:27;;;;;;;39.03;23.23;;;30.70;94.00;;;;;;5083132;28;20024;-63
2022/06/04 12:06:12;;;;;;;33.05;22.40;;;30.70;94.10;;;;;;5085056;28;20032;-64
2022/06/04 12:09:03;;;;;;;35.20;21.55;;;30.70;95.00;;;;;;5087010;28;20049;-64
2022/06/04 12:11:45;;;;;;;44.22;24.73;;;30.60;94.20;;;;;;5083684;28;20013;-64
2022/06/04 12:14:35;;;;;;;35.80;23.00;;;30.60;95.00;;;;;;5081228;28;20024;-64
2022/06/04 12:17:44;;;;;;;30.30;22.05;;;30.60;94.50;;;;;;5081927;28;20137;-64
2022/06/04 12:26:25;;;;;;;41.08;20.85;;;30.40;95.10;;;;;;5091945;28;20548;-64
2022/06/04 12:28:52;;;;;;;30.17;18.93;;;30.40;94.80;;;;;;5096119;28;20533;-63
2022/06/04 12:31:36;;;;;;;33.90;20.35;;;30.40;95.00;;;;;;5094470;28;20150;-67
2022/06/04 12:34:34;;;;;;;33.55;20.55;;;30.40;95.10;;;;;;5091564;28;20028;-66
2022/06/04 12:37:02;;;;;;;33.40;19.55;;;30.40;95.70;;;;;;5097205;28;20081;-65
2022/06/04 12:39:40;;;;;;;35.95;21.60;;;30.40;95.90;;;;;;5093435;28;20025;-63
2022/06/04 12:42:23;;;;;;;38.50;21.77;;;30.30;95.80;;;;;;5076083;28;20029;-65
2022/06/04 12:45:05;;;;;;;33.65;21.25;;;30.40;96.50;;;;;;5088940;28;20012;-64
2022/06/04 12:47:38;;;;;;;37.15;21.35;;;30.40;95.90;;;;;;5080769;28;20032;-64
2022/06/04 12:50:18;;;;;;;36.95;21.45;;;30.40;95.90;;;;;;5083608;28;20032;-64
2022/06/04 12:52:50;;;;;;;38.13;21.55;;;30.30;96.20;;;;;;5078047;28;20605;-62
2022/06/04 12:55:26;;;;;;;34.35;21.58;;;30.30;96.30;;;;;;5088755;28;20381;-64
2022/06/04 12:58:03;;;;;;;41.72;22.83;;;30.30;96.90;;;;;;5085507;28;20029;-65
2022/06/04 13:00:42;;;;;;;41.70;23.52;;;30.30;97.00;;;;;;5086066;28;20075;-64
2022/06/04 13:03:09;;;;;;;37.53;22.98;;;30.30;97.40;;;;;;5090623;28;20422;-65
2022/06/04 13:06:03;;;;;;;36.50;22.75;;;30.30;97.50;;;;;;5085891;28;20112;-64
2022/06/04 13:08:56;;;;;;;39.08;22.38;;;30.30;97.60;;;;;;5056194;28;20434;-64
2022/06/04 13:11:25;;;;;;;39.97;23.65;;;30.30;97.50;;;;;;5094665;28;20028;-65
2022/06/04 13:14:08;;;;;;;32.55;23.20;;;30.30;97.10;;;;;;5095754;28;20032;-65
2022/06/04 13:16:57;;;;;;;41.10;28.30;;;30.10;97.20;;;;;;5095223;28;20093;-64
2022/06/04 13:20:01;;;;;;;53.38;35.55;;;30.00;97.50;;;;;;5093920;28;20560;-64
2022/06/04 13:22:43;;;;;;;43.42;28.95;;;30.00;97.60;;;;;;5075405;28;20059;-64